createdAt,value
2019-05-26T00:01:39.603Z,18.50
2019-05-26T00:06:41.569Z,19.80
2019-05-26T00:11:43.578Z,18.80
2019-05-26T00:16:45.677Z,18.63
2019-05-26T00:21:48.859Z,17.27
2019-05-26T00:26:50.835Z,18.03
2019-05-26T00:31:52.640Z,17.33
2019-05-26T00:36:54.563Z,18.10
2019-05-26T00:41:56.400Z,16.77
2019-05-26T00:46:58.465Z,17.80
2019-05-26T00:52:02.824Z,16.93
2019-05-26T00:57:07.518Z,18.17
2019-05-26T01:02:09.340Z,19.67
2019-05-26T01:07:11.321Z,19.87
2019-05-26T01:12:16.170Z,18.93
2019-05-26T01:17:19.529Z,20.30
2019-05-26T01:22:21.375Z,21.77
2019-05-26T01:27:23.341Z,20.77
2019-05-26T01:32:25.272Z,22.17
2019-05-26T01:37:31.525Z,23.33
2019-05-26T01:42:33.333Z,28.70
2019-05-26T01:47:37.017Z,29.10
2019-05-26T01:52:40.617Z,36.43
2019-05-26T01:57:42.452Z,45.53
2019-05-26T02:02:47.388Z,44.70
2019-05-26T02:07:49.483Z,49.37
2019-05-26T02:12:52.473Z,45.77
2019-05-26T02:17:54.339Z,46.97
2019-05-26T02:22:56.148Z,44.23
2019-05-26T02:27:58.070Z,42.77
2019-05-26T02:33:00.042Z,43.23
2019-05-26T02:38:01.847Z,43.00
2019-05-26T02:43:03.730Z,43.03
2019-05-26T02:48:05.711Z,41.83
2019-05-26T02:53:07.578Z,40.77
2019-05-26T02:58:09.375Z,43.17
2019-05-26T03:03:14.265Z,44.57
2019-05-26T03:08:16.348Z,43.33
2019-05-26T03:13:18.353Z,43.70
2019-05-26T03:18:20.139Z,45.40
2019-05-26T03:23:22.252Z,46.10
2019-05-26T03:28:24.073Z,43.50
2019-05-26T03:33:26.108Z,45.60
2019-05-26T03:38:27.994Z,47.27
2019-05-26T03:43:29.781Z,45.47
2019-05-26T03:48:31.538Z,46.13
2019-05-26T03:53:33.346Z,45.90
2019-05-26T03:58:35.148Z,45.10
2019-05-26T04:03:36.996Z,43.57
2019-05-26T04:08:38.909Z,42.73
2019-05-26T04:13:40.992Z,42.67
2019-05-26T04:18:42.798Z,42.73
2019-05-26T04:23:44.863Z,42.33
2019-05-26T04:28:46.700Z,41.47
2019-05-26T04:33:48.678Z,41.97
2019-05-26T04:38:50.481Z,40.13
2019-05-26T04:43:52.478Z,40.60
2019-05-26T04:48:54.311Z,37.57
2019-05-26T04:53:55.908Z,33.87
2019-05-26T04:58:58.114Z,37.67
2019-05-26T05:03:59.828Z,37.77
2019-05-26T05:09:01.738Z,35.50
2019-05-26T05:14:03.940Z,36.87
2019-05-26T05:19:07.988Z,36.57
2019-05-26T05:24:09.941Z,34.73
2019-05-26T05:29:11.833Z,33.57
2019-05-26T05:34:13.779Z,34.33
2019-05-26T05:39:15.473Z,34.30
2019-05-26T05:44:17.329Z,34.27
2019-05-26T05:49:19.180Z,34.77
2019-05-26T05:54:21.110Z,33.00
2019-05-26T05:59:22.966Z,33.63
2019-05-26T06:04:26.623Z,32.70
2019-05-26T06:09:28.439Z,33.13
2019-05-26T06:14:30.514Z,32.83
2019-05-26T06:19:32.320Z,31.67
2019-05-26T06:24:34.190Z,30.50
2019-05-26T06:29:36.045Z,30.87
2019-05-26T06:34:38.181Z,26.87
2019-05-26T06:39:42.708Z,28.20
2019-05-26T06:44:53.655Z,27.13
2019-05-26T06:49:51.373Z,26.93
2019-05-26T06:54:57.919Z,24.93
2019-05-26T06:59:59.776Z,24.73
2019-05-26T07:05:01.840Z,24.10
2019-05-26T07:10:04.150Z,22.93
2019-05-26T07:15:06.650Z,22.90
2019-05-26T07:20:08.768Z,24.00
2019-05-26T07:25:10.876Z,22.07
2019-05-26T07:30:12.829Z,21.93
2019-05-26T07:35:14.914Z,22.20
2019-05-26T07:40:19.069Z,20.53
2019-05-26T07:45:20.951Z,22.17
2019-05-26T07:50:22.750Z,20.20
2019-05-26T07:55:24.834Z,22.13
2019-05-26T08:00:30.148Z,21.37
2019-05-26T08:05:32.248Z,20.90
2019-05-26T08:10:35.477Z,19.87
2019-05-26T08:15:40.372Z,20.23
2019-05-26T08:20:44.819Z,20.40
2019-05-26T08:25:46.652Z,18.73
2019-05-26T08:30:48.455Z,18.53
2019-05-26T08:35:53.000Z,19.00
2019-05-26T08:40:54.803Z,17.93
2019-05-26T08:46:00.599Z,17.83
2019-05-26T08:51:02.459Z,18.70
2019-05-26T08:56:07.332Z,19.50
2019-05-26T09:01:09.123Z,16.40
2019-05-26T09:06:16.160Z,16.77
2019-05-26T09:11:17.993Z,17.60
2019-05-26T09:16:22.903Z,18.77
2019-05-26T09:21:24.714Z,17.30
2019-05-26T09:26:26.683Z,18.77
2019-05-26T09:31:28.476Z,16.50
2019-05-26T09:36:30.175Z,17.23
2019-05-26T09:41:31.984Z,16.37
2019-05-26T09:46:38.741Z,17.20
2019-05-26T09:51:43.689Z,16.70
2019-05-26T09:56:48.529Z,18.87
2019-05-26T10:01:50.328Z,17.80
2019-05-26T10:06:52.139Z,17.20
2019-05-26T10:11:58.836Z,19.93
2019-05-26T10:17:03.848Z,19.57
2019-05-26T10:22:05.643Z,18.53
2019-05-26T10:27:07.679Z,16.57
2019-05-26T10:32:11.632Z,17.60
2019-05-26T10:37:15.227Z,15.20
2019-05-26T10:42:17.044Z,12.07
2019-05-26T10:47:21.407Z,7.93
2019-05-26T10:52:23.199Z,5.90
2019-05-26T10:57:25.105Z,5.97
2019-05-26T11:02:26.892Z,5.63
2019-05-26T11:07:28.756Z,6.07
2019-05-26T11:12:36.176Z,6.10
2019-05-26T11:17:39.225Z,7.20
2019-05-26T11:22:41.041Z,6.60
2019-05-26T11:27:45.967Z,7.00
2019-05-26T11:32:49.654Z,6.67
2019-05-26T11:37:51.705Z,6.27
2019-05-26T11:42:56.047Z,6.53
2019-05-26T11:47:59.270Z,6.77
2019-05-26T11:53:03.913Z,6.90
2019-05-26T11:58:06.042Z,7.20
2019-05-26T12:03:07.854Z,6.70
2019-05-26T12:08:09.857Z,6.03
2019-05-26T12:13:12.878Z,6.30
2019-05-26T12:18:14.958Z,6.17
2019-05-26T12:23:16.720Z,5.17
2019-05-26T12:28:20.614Z,4.37
2019-05-26T12:33:24.813Z,4.20
2019-05-26T12:38:28.950Z,4.10
2019-05-26T12:43:32.228Z,4.57
2019-05-26T12:48:36.341Z,4.53
2019-05-26T12:53:38.229Z,4.43
2019-05-26T12:58:40.035Z,4.27
2019-05-26T13:03:41.780Z,4.60
2019-05-26T13:08:47.766Z,4.50
2019-05-26T13:13:51.691Z,4.50
2019-05-26T13:18:53.542Z,4.60
2019-05-26T13:23:55.389Z,4.00
2019-05-26T13:28:58.941Z,3.80
2019-05-26T13:34:00.806Z,3.73
2019-05-26T13:39:04.605Z,3.73
2019-05-26T13:44:06.695Z,3.43
2019-05-26T13:49:08.595Z,3.10
2019-05-26T13:54:10.636Z,2.73
2019-05-26T13:59:12.452Z,2.70
2019-05-26T14:04:14.254Z,2.90
2019-05-26T14:09:18.948Z,2.50
2019-05-26T14:14:21.035Z,2.07
2019-05-26T14:19:26.088Z,1.87
2019-05-26T14:24:28.006Z,1.77
2019-05-26T14:29:29.930Z,1.80
2019-05-26T14:34:32.023Z,1.67
2019-05-26T14:39:33.836Z,1.33
2019-05-26T14:44:35.685Z,1.50
2019-05-26T14:49:37.502Z,1.50
2019-05-26T14:54:41.058Z,1.57
2019-05-26T14:59:43.232Z,1.33
2019-05-26T15:04:47.912Z,1.40
2019-05-26T15:09:52.374Z,1.70
2019-05-26T15:14:54.370Z,1.80
2019-05-26T15:19:58.308Z,2.07
2019-05-26T15:25:04.142Z,2.03
2019-05-26T15:30:08.396Z,2.37
2019-05-26T15:35:11.150Z,2.60
2019-05-26T15:40:13.154Z,2.47
2019-05-26T15:45:17.110Z,2.83
2019-05-26T15:50:19.020Z,2.97
2019-05-26T15:55:20.946Z,3.27
2019-05-26T16:00:22.948Z,3.00
2019-05-26T16:05:27.564Z,3.30
2019-05-26T16:10:29.410Z,2.87
2019-05-26T16:15:31.377Z,3.97
2019-05-26T16:20:33.201Z,3.57
2019-05-26T16:25:35.231Z,3.70
2019-05-26T16:30:37.065Z,3.50
2019-05-26T16:35:38.957Z,3.50
2019-05-26T16:40:41.103Z,3.43
2019-05-26T16:45:55.682Z,3.87
2019-05-26T16:50:46.913Z,3.43
2019-05-26T16:55:48.976Z,3.67
2019-05-26T17:00:50.798Z,3.83
2019-05-26T17:06:06.977Z,3.77
2019-05-26T17:10:56.356Z,4.10
2019-05-26T17:16:00.838Z,3.80
2019-05-26T17:21:02.681Z,3.77
2019-05-26T17:26:04.567Z,4.10
2019-05-26T17:31:06.378Z,3.90
2019-05-26T17:36:10.307Z,3.40
2019-05-26T17:41:13.429Z,3.50
2019-05-26T17:46:18.310Z,3.60
2019-05-26T17:51:20.008Z,3.63
2019-05-26T17:56:21.952Z,3.37
2019-05-26T18:01:28.454Z,3.60
2019-05-26T18:06:30.533Z,3.03
2019-05-26T18:11:32.328Z,3.30
2019-05-26T18:16:34.115Z,2.90
2019-05-26T18:21:35.934Z,3.07
2019-05-26T18:26:39.060Z,3.10
2019-05-26T18:31:40.862Z,3.00
2019-05-26T18:36:42.667Z,2.70
2019-05-26T18:41:44.465Z,3.00
2019-05-26T18:46:47.794Z,2.83
2019-05-26T18:51:51.077Z,3.00
2019-05-26T18:56:53.186Z,3.23
2019-05-26T19:01:55.082Z,3.17
2019-05-26T19:06:57.079Z,3.30
2019-05-26T19:11:59.062Z,3.47
2019-05-26T19:17:01.070Z,3.90
2019-05-26T19:22:02.884Z,3.27
2019-05-26T19:27:05.977Z,3.43
2019-05-26T19:32:09.221Z,3.60
2019-05-26T19:37:12.313Z,3.60
2019-05-26T19:42:14.302Z,3.53
2019-05-26T19:47:16.290Z,4.13
2019-05-26T19:52:18.118Z,4.13
2019-05-26T19:57:22.213Z,4.27
2019-05-26T20:02:24.015Z,4.13
2019-05-26T20:07:25.909Z,4.77
2019-05-26T20:12:27.804Z,4.93
2019-05-26T20:17:29.806Z,6.00
2019-05-26T20:22:32.874Z,6.57
2019-05-26T20:27:35.010Z,6.90
2019-05-26T20:32:38.226Z,7.80
2019-05-26T20:37:40.108Z,10.10
2019-05-26T20:42:48.198Z,9.23
2019-05-26T20:47:50.176Z,9.17
2019-05-26T20:52:52.057Z,10.10
2019-05-26T20:57:56.647Z,10.40
2019-05-26T21:03:01.421Z,11.43
2019-05-26T21:08:04.335Z,12.17
2019-05-26T21:13:06.163Z,11.07
2019-05-26T21:18:08.202Z,10.73
2019-05-26T21:23:10.006Z,10.10
2019-05-26T21:28:11.879Z,10.33
2019-05-26T21:33:15.282Z,10.50
2019-05-26T21:38:17.164Z,9.47
2019-05-26T21:43:21.855Z,9.87
2019-05-26T21:48:25.660Z,10.57
2019-05-26T21:53:27.560Z,10.60
2019-05-26T21:58:35.925Z,11.20
2019-05-26T22:03:38.057Z,12.03
2019-05-26T22:08:39.893Z,8.37
2019-05-26T22:13:41.530Z,8.00
2019-05-26T22:18:43.337Z,7.40
2019-05-26T22:23:45.162Z,7.30
2019-05-26T22:28:46.968Z,8.60
2019-05-26T22:33:48.777Z,7.70
2019-05-26T22:38:52.595Z,6.87
2019-05-26T22:43:54.494Z,5.50
2019-05-26T22:48:56.291Z,6.90
2019-05-26T22:53:58.172Z,8.03
2019-05-26T22:58:59.942Z,6.40
2019-05-26T23:04:03.298Z,6.27
2019-05-26T23:09:05.953Z,5.27
2019-05-26T23:14:07.716Z,6.30
2019-05-26T23:19:18.705Z,5.73
2019-05-26T23:24:13.498Z,5.93
2019-05-26T23:29:15.274Z,8.17
2019-05-26T23:34:16.967Z,7.50
2019-05-26T23:39:18.763Z,8.47
2019-05-26T23:44:21.957Z,9.17
2019-05-26T23:49:23.787Z,8.70
2019-05-26T23:54:27.951Z,10.37
2019-05-26T23:59:29.656Z,8.77
